Time;durP1;ratioP1;P1;durP2;ratioP2;P2;SDS_P1;SDS_P2;PMS_P1;PMS_P2;Temp;Humidity;BMP_temperature;BMP_pressure;BME280_temperature;BME280_humidity;BME280_pressure;Samples;Min_cycle;Max_cycle;Signal;HPM_P1;HPM_P2
2023/07/07 00:01:55;;;;;;;3.20;2.90;;;22.50;46.10;;;;;;4998118;28;20226;-79
2023/07/07 00:04:23;;;;;;;3.70;3.13;;;22.60;46.30;;;;;;5015427;28;20191;-79
2023/07/07 00:06:50;;;;;;;3.22;2.90;;;22.50;46.30;;;;;;5014261;28;20211;-79
2023/07/07 00:09:17;;;;;;;3.20;2.58;;;22.50;46.20;;;;;;5014048;28;20228;-79
2023/07/07 00:11:44;;;;;;;3.42;3.13;;;22.50;46.20;;;;;;5014888;28;20572;-79
2023/07/07 00:14:11;;;;;;;3.35;3.00;;;22.50;46.40;;;;;;5013788;28;20338;-79
2023/07/07 00:16:40;;;;;;;3.17;2.88;;;22.50;46.30;;;;;;5013911;28;20217;-79
2023/07/07 00:19:10;;;;;;;3.97;3.15;;;22.50;46.20;;;;;;5013759;28;20213;-79
2023/07/07 00:21:37;;;;;;;3.25;2.95;;;22.50;46.30;;;;;;5013826;28;20280;-79
2023/07/07 00:24:05;;;;;;;3.92;3.00;;;22.40;46.30;;;;;;5015635;28;20271;-79
2023/07/07 00:26:33;;;;;;;3.08;2.78;;;22.40;46.50;;;;;;5013882;28;20215;-79
2023/07/07 00:29:02;;;;;;;4.10;2.97;;;22.40;46.50;;;;;;5013837;28;20224;-79
2023/07/07 00:31:29;;;;;;;3.80;3.10;;;22.40;46.30;;;;;;5013561;28;20247;-79
2023/07/07 00:33:58;;;;;;;3.30;3.00;;;22.40;46.50;;;;;;5013627;28;20215;-79
2023/07/07 00:36:26;;;;;;;3.38;3.08;;;22.30;46.40;;;;;;5013470;28;20216;-79
2023/07/07 00:38:53;;;;;;;3.30;3.00;;;22.30;46.50;;;;;;5013732;28;20248;-79
2023/07/07 00:41:19;;;;;;;4.15;3.10;;;22.30;46.40;;;;;;5013442;28;20715;-79
2023/07/07 00:44:00;;;;;;;3.00;2.75;;;22.30;46.50;;;;;;5013386;28;20216;-79
2023/07/07 00:46:27;;;;;;;3.47;2.70;;;22.30;46.40;;;;;;5013384;28;20193;-79
2023/07/07 00:48:54;;;;;;;3.35;3.00;;;22.30;46.50;;;;;;5013388;28;20217;-79
2023/07/07 00:51:24;;;;;;;3.90;3.00;;;22.30;46.70;;;;;;5013233;28;20201;-79
2023/07/07 00:53:52;;;;;;;3.00;2.70;;;22.30;46.50;;;;;;5013496;28;20659;-79
2023/07/07 00:56:22;;;;;;;3.85;2.90;;;22.30;46.70;;;;;;5013070;28;20204;-79
2023/07/07 00:58:49;;;;;;;2.92;2.70;;;22.30;46.60;;;;;;5014150;28;20221;-79
2023/07/07 01:01:17;;;;;;;3.40;2.92;;;22.20;46.50;;;;;;4996660;28;20287;-79
2023/07/07 01:03:46;;;;;;;4.25;3.20;;;22.20;46.50;;;;;;5012867;28;20737;-79
2023/07/07 01:06:15;;;;;;;3.47;3.00;;;22.20;46.50;;;;;;5013091;28;20211;-79
2023/07/07 01:08:45;;;;;;;3.33;3.03;;;22.20;46.50;;;;;;5012889;28;20223;-79
2023/07/07 01:11:12;;;;;;;3.35;3.05;;;22.20;46.60;;;;;;5012909;28;20212;-79
2023/07/07 01:13:39;;;;;;;2.88;2.55;;;22.20;46.50;;;;;;5013727;28;20197;-79
2023/07/07 01:16:09;;;;;;;4.70;3.17;;;22.20;46.60;;;;;;5014019;28;20671;-79
2023/07/07 01:18:40;;;;;;;3.70;3.13;;;22.20;46.60;;;;;;4996908;28;20228;-79
2023/07/07 01:21:12;;;;;;;3.53;2.80;;;22.20;46.60;;;;;;4996726;28;20235;-79
2023/07/07 01:24:18;;;;;;;3.22;2.92;;;22.10;46.50;;;;;;5012906;28;20304;-79
2023/07/07 01:27:18;;;;;;;3.97;2.90;;;22.10;46.50;;;;;;5012793;28;20631;-79
2023/07/07 01:30:16;;;;;;;3.30;3.00;;;22.10;46.40;;;;;;4968251;28;20228;-79
2023/07/07 01:32:43;;;;;;;4.35;3.13;;;22.10;46.50;;;;;;5013289;28;20211;-79
2023/07/07 01:35:13;;;;;;;3.80;3.10;;;22.10;46.50;;;;;;5014153;28;20189;-79
2023/07/07 01:37:41;;;;;;;3.25;2.90;;;22.10;46.60;;;;;;5012608;28;20217;-79
2023/07/07 01:40:09;;;;;;;3.00;2.78;;;22.10;46.50;;;;;;5012868;28;20236;-79
2023/07/07 01:42:40;;;;;;;3.42;3.13;;;22.10;46.60;;;;;;5012784;28;20604;-79
2023/07/07 01:45:09;;;;;;;4.75;3.40;;;22.00;46.40;;;;;;5012767;28;20272;-79
2023/07/07 01:47:38;;;;;;;3.20;2.90;;;22.00;46.40;;;;;;5012712;28;20275;-79
2023/07/07 01:50:07;;;;;;;5.28;3.20;;;22.00;46.50;;;;;;5012742;28;20221;-79
2023/07/07 01:52:37;;;;;;;3.50;3.08;;;22.00;46.50;;;;;;5012944;28;20207;-79
2023/07/07 01:55:07;;;;;;;3.35;3.05;;;22.00;46.60;;;;;;5013090;28;20204;-79
2023/07/07 01:57:34;;;;;;;4.95;3.15;;;22.00;46.60;;;;;;5013413;28;20248;-79
2023/07/07 02:00:01;;;;;;;3.22;2.92;;;22.00;46.60;;;;;;5014168;28;20208;-79
2023/07/07 02:02:28;;;;;;;3.50;3.17;;;22.00;46.70;;;;;;5016546;28;20219;-79
2023/07/07 02:04:56;;;;;;;4.28;3.40;;;22.00;46.70;;;;;;5017115;28;20550;-79
2023/07/07 02:07:23;;;;;;;3.47;3.10;;;21.90;46.50;;;;;;5016631;28;20193;-79
2023/07/07 02:09:51;;;;;;;4.03;3.55;;;21.90;47.20;;;;;;5016708;28;20590;-79
2023/07/07 02:12:18;;;;;;;4.22;3.40;;;21.90;46.60;;;;;;5016685;28;20201;-79
2023/07/07 02:14:47;;;;;;;3.85;3.22;;;21.90;46.70;;;;;;5016353;28;20204;-79
2023/07/07 02:17:15;;;;;;;4.38;3.50;;;21.90;46.60;;;;;;5016219;28;20232;-79
2023/07/07 02:19:43;;;;;;;4.20;3.22;;;21.90;46.70;;;;;;5016537;28;20212;-79
2023/07/07 02:22:11;;;;;;;4.40;3.58;;;21.90;46.90;;;;;;5016334;28;20215;-79
2023/07/07 02:24:38;;;;;;;4.32;3.55;;;21.90;46.90;;;;;;5000513;28;20212;-79
2023/07/07 02:27:08;;;;;;;4.00;3.60;;;21.80;46.80;;;;;;5016153;28;20189;-79
2023/07/07 02:29:35;;;;;;;4.00;3.60;;;21.80;46.70;;;;;;5016011;28;20220;-79
2023/07/07 02:32:02;;;;;;;4.18;3.75;;;21.80;46.80;;;;;;5016161;28;20247;-79
2023/07/07 02:34:28;;;;;;;5.22;3.63;;;21.80;46.80;;;;;;5015961;28;20279;-79
2023/07/07 02:36:56;;;;;;;3.92;3.55;;;21.80;46.90;;;;;;5016099;28;20201;-79
2023/07/07 02:39:26;;;;;;;6.13;3.92;;;21.80;46.80;;;;;;5016503;28;20225;-79
2023/07/07 02:41:54;;;;;;;4.18;3.50;;;21.80;46.90;;;;;;5015790;28;20201;-79
2023/07/07 02:44:21;;;;;;;6.07;3.65;;;21.80;46.90;;;;;;5015717;28;20201;-79
2023/07/07 02:46:49;;;;;;;5.70;3.80;;;21.80;47.00;;;;;;5015594;28;20251;-79
2023/07/07 02:49:17;;;;;;;3.55;3.25;;;21.80;47.10;;;;;;5015376;28;20217;-79
2023/07/07 02:51:45;;;;;;;5.90;3.90;;;21.70;47.00;;;;;;5015314;28;20216;-79
2023/07/07 02:54:11;;;;;;;4.93;3.75;;;21.70;47.00;;;;;;5015482;28;20200;-79
2023/07/07 02:56:40;;;;;;;5.18;3.90;;;21.70;47.00;;;;;;4999419;28;20231;-79
2023/07/07 02:59:07;;;;;;;5.03;3.70;;;21.70;47.10;;;;;;5015068;28;20232;-79
2023/07/07 03:01:35;;;;;;;5.75;3.80;;;21.70;47.10;;;;;;5015266;28;20197;-79
2023/07/07 03:04:02;;;;;;;4.22;3.65;;;21.70;47.10;;;;;;5015618;28;20201;-79
2023/07/07 03:06:29;;;;;;;4.53;4.10;;;21.60;47.10;;;;;;5015042;28;20207;-79
2023/07/07 03:08:56;;;;;;;4.93;3.90;;;21.70;47.10;;;;;;5015008;28;20357;-79
2023/07/07 03:11:25;;;;;;;4.45;3.80;;;21.70;47.10;;;;;;5014686;28;20232;-79
2023/07/07 03:13:55;;;;;;;6.03;4.10;;;21.60;47.10;;;;;;4999528;28;20208;-79
2023/07/07 03:16:30;;;;;;;6.25;4.00;;;21.60;47.10;;;;;;5015390;28;20247;-79
2023/07/07 03:19:02;;;;;;;5.25;4.30;;;21.60;47.10;;;;;;5014784;28;20315;-79
2023/07/07 03:21:32;;;;;;;4.57;3.78;;;21.70;47.30;;;;;;5015529;28;20207;-79
2023/07/07 03:24:08;;;;;;;4.53;4.03;;;21.70;47.20;;;;;;5015974;28;20204;-79
2023/07/07 03:26:35;;;;;;;4.75;4.07;;;21.70;47.40;;;;;;5014636;28;20200;-79
2023/07/07 03:29:07;;;;;;;4.70;3.95;;;21.70;47.30;;;;;;5014686;28;20216;-79
2023/07/07 03:31:35;;;;;;;4.63;4.00;;;21.70;47.10;;;;;;5014589;28;20203;-79
2023/07/07 03:34:04;;;;;;;5.22;3.97;;;21.80;47.20;;;;;;5014643;28;20609;-79
2023/07/07 03:36:35;;;;;;;6.03;3.97;;;21.80;47.20;;;;;;5014561;28;20203;-79
2023/07/07 03:39:04;;;;;;;5.05;3.88;;;21.80;47.20;;;;;;5014321;28;20255;-79
2023/07/07 03:41:32;;;;;;;5.10;4.00;;;21.80;47.20;;;;;;5014849;28;20201;-79
2023/07/07 03:44:01;;;;;;;4.65;4.15;;;21.80;47.10;;;;;;5014313;28;20193;-79
2023/07/07 03:46:32;;;;;;;5.10;3.85;;;21.80;47.20;;;;;;5014582;28;20721;-79
2023/07/07 03:48:59;;;;;;;4.32;3.60;;;21.80;47.00;;;;;;5014534;28;20308;-79
2023/07/07 03:51:34;;;;;;;4.60;4.00;;;21.90;47.00;;;;;;5014548;28;20243;-79
2023/07/07 03:54:04;;;;;;;4.85;3.63;;;21.90;47.10;;;;;;5015499;28;20590;-79
2023/07/07 03:56:32;;;;;;;4.82;4.00;;;21.90;47.00;;;;;;5014255;28;20205;-79
2023/07/07 03:58:59;;;;;;;4.70;3.88;;;21.90;47.10;;;;;;5014387;28;20229;-79
2023/07/07 04:01:33;;;;;;;4.22;3.80;;;21.90;46.90;;;;;;5014235;28;20196;-79
2023/07/07 04:04:00;;;;;;;5.18;3.80;;;21.80;46.90;;;;;;5015177;28;20212;-78
2023/07/07 04:06:27;;;;;;;4.32;3.50;;;21.90;47.00;;;;;;5015715;28;20200;-78
2023/07/07 04:08:56;;;;;;;4.93;4.00;;;21.80;47.00;;;;;;5001451;28;20219;-78
2023/07/07 04:11:25;;;;;;;4.38;3.97;;;21.80;47.60;;;;;;5015721;28;20548;-78
2023/07/07 04:13:53;;;;;;;5.20;4.10;;;21.90;47.10;;;;;;5016203;28;20201;-78
2023/07/07 04:16:21;;;;;;;4.53;3.75;;;21.80;46.90;;;;;;5014750;28;20254;-78
2023/07/07 04:18:51;;;;;;;4.78;4.10;;;21.90;47.20;;;;;;5016396;28;20579;-79
2023/07/07 04:21:20;;;;;;;6.38;3.67;;;21.80;47.10;;;;;;5014066;28;20200;-79
2023/07/07 04:23:47;;;;;;;5.93;3.95;;;21.80;47.10;;;;;;5013450;28;20207;-79
2023/07/07 04:26:15;;;;;;;4.93;3.88;;;21.90;47.20;;;;;;5015136;28;20192;-79
2023/07/07 04:28:42;;;;;;;4.25;3.60;;;21.90;47.20;;;;;;5014783;28;20208;-78
2023/07/07 04:31:11;;;;;;;4.38;3.80;;;21.80;47.20;;;;;;5013612;28;20196;-78
2023/07/07 04:33:38;;;;;;;5.35;4.18;;;21.90;47.20;;;;;;5014032;28;20700;-77
2023/07/07 04:36:07;;;;;;;5.22;3.53;;;21.90;47.30;;;;;;5013911;28;20204;-79
2023/07/07 04:38:35;;;;;;;4.18;3.60;;;21.90;47.50;;;;;;5013503;28;20283;-78
2023/07/07 04:41:09;;;;;;;5.10;3.63;;;21.90;47.30;;;;;;5013615;28;20197;-78
2023/07/07 04:43:37;;;;;;;6.35;3.80;;;21.90;47.30;;;;;;5013509;28;20197;-79
2023/07/07 04:46:05;;;;;;;4.78;3.70;;;21.90;47.30;;;;;;4997854;28;20220;-79
2023/07/07 04:48:32;;;;;;;4.38;3.50;;;21.90;47.30;;;;;;5014926;28;20208;-79
2023/07/07 04:51:00;;;;;;;4.82;3.78;;;22.00;47.40;;;;;;4997546;28;20201;-79
2023/07/07 04:53:29;;;;;;;4.20;3.80;;;22.00;47.40;;;;;;5013578;28;20678;-79
2023/07/07 04:55:56;;;;;;;5.45;3.75;;;22.10;47.30;;;;;;5013545;28;20201;-79
2023/07/07 04:58:25;;;;;;;5.65;3.80;;;22.20;47.20;;;;;;5013900;28;20252;-79
2023/07/07 05:00:52;;;;;;;3.50;3.20;;;22.30;47.10;;;;;;5013424;28;20251;-77
2023/07/07 05:03:19;;;;;;;5.03;3.70;;;22.40;46.90;;;;;;5013165;28;20291;-78
2023/07/07 05:05:46;;;;;;;4.60;3.35;;;22.60;46.90;;;;;;5013196;28;20212;-78
2023/07/07 05:08:13;;;;;;;4.20;3.80;;;22.60;46.60;;;;;;5013211;28;20193;-78
2023/07/07 05:10:41;;;;;;;4.38;3.63;;;22.70;46.50;;;;;;5013106;28;20663;-78
2023/07/07 05:13:09;;;;;;;4.53;3.70;;;22.80;46.60;;;;;;5012957;28;20649;-79
2023/07/07 05:15:36;;;;;;;3.88;3.25;;;22.90;46.40;;;;;;5013303;28;20192;-78
2023/07/07 05:18:03;;;;;;;3.47;3.17;;;23.00;46.70;;;;;;5012842;28;20703;-78
2023/07/07 05:20:30;;;;;;;5.00;3.50;;;23.10;46.10;;;;;;5013362;28;20205;-78
2023/07/07 05:22:57;;;;;;;4.82;3.72;;;23.20;45.70;;;;;;5012769;28;20555;-78
2023/07/07 05:25:24;;;;;;;4.15;3.55;;;23.40;45.70;;;;;;5012865;28;20200;-78
2023/07/07 05:27:52;;;;;;;3.97;3.42;;;23.50;45.40;;;;;;5013973;28;20579;-78
2023/07/07 05:30:19;;;;;;;4.97;3.70;;;23.60;45.30;;;;;;5012656;28;20221;-78
2023/07/07 05:32:46;;;;;;;3.47;3.17;;;23.70;44.90;;;;;;5012841;28;20204;-78
2023/07/07 05:35:13;;;;;;;3.35;3.05;;;23.80;44.70;;;;;;5013291;28;20200;-78
2023/07/07 05:37:40;;;;;;;5.47;3.55;;;23.90;44.60;;;;;;5016986;28;20276;-78
2023/07/07 05:40:09;;;;;;;3.90;3.33;;;24.00;44.40;;;;;;5017282;28;20216;-78
2023/07/07 05:42:36;;;;;;;4.47;3.35;;;24.10;44.20;;;;;;5001197;28;20652;-78
2023/07/07 05:45:05;;;;;;;3.63;3.22;;;24.20;43.90;;;;;;5016851;28;20565;-78
2023/07/07 05:47:32;;;;;;;4.55;3.53;;;24.30;43.80;;;;;;5018278;28;20211;-78
2023/07/07 05:49:59;;;;;;;4.45;3.30;;;24.40;43.60;;;;;;5017836;28;20691;-78
2023/07/07 05:52:26;;;;;;;4.40;3.45;;;24.50;43.40;;;;;;5000826;28;20228;-78
2023/07/07 05:54:54;;;;;;;4.25;3.45;;;24.60;43.30;;;;;;5000398;28;20652;-78
2023/07/07 05:57:21;;;;;;;3.80;3.50;;;24.60;43.00;;;;;;5016810;28;20287;-78
2023/07/07 05:59:48;;;;;;;4.97;3.22;;;24.70;43.00;;;;;;5017390;28;20673;-78
2023/07/07 06:02:17;;;;;;;4.00;3.40;;;24.80;42.90;;;;;;5016781;28;20212;-78
2023/07/07 06:04:44;;;;;;;4.25;3.25;;;24.90;42.80;;;;;;5016630;28;20201;-78
2023/07/07 06:07:11;;;;;;;3.65;3.28;;;24.90;42.60;;;;;;5018309;28;20605;-78
2023/07/07 06:09:38;;;;;;;3.60;3.30;;;25.00;42.50;;;;;;5000546;28;20236;-78
2023/07/07 06:12:06;;;;;;;3.40;3.10;;;25.10;42.40;;;;;;5016912;28;20204;-78
2023/07/07 06:14:33;;;;;;;3.63;3.08;;;25.10;42.30;;;;;;5017158;28;20251;-78
2023/07/07 06:17:00;;;;;;;4.03;3.35;;;25.20;42.30;;;;;;5016594;28;20197;-78
2023/07/07 06:19:28;;;;;;;3.70;2.90;;;25.20;42.20;;;;;;5016262;28;20221;-78
2023/07/07 06:21:55;;;;;;;3.25;2.95;;;25.30;42.10;;;;;;5016317;28;20197;-78
2023/07/07 06:24:22;;;;;;;3.80;3.40;;;25.40;42.00;;;;;;5016285;28;20197;-78
2023/07/07 06:26:49;;;;;;;4.20;3.35;;;25.40;41.80;;;;;;5016150;28;20229;-78
2023/07/07 06:29:16;;;;;;;3.67;3.22;;;25.50;41.60;;;;;;5015874;28;20633;-78
2023/07/07 06:31:43;;;;;;;4.03;3.35;;;25.60;41.40;;;;;;5016369;28;20201;-78
2023/07/07 06:34:10;;;;;;;3.20;2.90;;;25.70;41.40;;;;;;5017249;28;20197;-78
2023/07/07 06:36:39;;;;;;;4.03;3.40;;;25.70;41.20;;;;;;5016481;28;20208;-78
2023/07/07 06:39:07;;;;;;;5.03;3.00;;;25.80;41.10;;;;;;5016862;28;20227;-78
2023/07/07 06:41:34;;;;;;;3.33;3.03;;;25.90;41.10;;;;;;5015734;28;20287;-78
2023/07/07 06:44:01;;;;;;;3.55;3.25;;;25.90;40.90;;;;;;5015551;28;20656;-78
2023/07/07 06:46:28;;;;;;;3.60;3.20;;;26.00;40.80;;;;;;5015365;28;20196;-78
2023/07/07 06:48:56;;;;;;;3.88;3.03;;;26.00;40.60;;;;;;5015607;28;20213;-78
2023/07/07 06:51:23;;;;;;;3.17;2.88;;;26.10;40.60;;;;;;5015533;28;20264;-78
2023/07/07 06:53:52;;;;;;;4.18;3.58;;;26.20;40.40;;;;;;5015489;28;20197;-78
2023/07/07 06:56:19;;;;;;;3.50;3.20;;;26.20;40.30;;;;;;5015369;28;20287;-78
2023/07/07 06:58:46;;;;;;;3.42;3.13;;;26.30;40.80;;;;;;5015291;28;20699;-78
2023/07/07 07:01:14;;;;;;;5.25;3.17;;;26.30;40.10;;;;;;5015217;28;20197;-78
2023/07/07 07:03:42;;;;;;;3.55;3.08;;;26.40;39.90;;;;;;5015411;28;20668;-78
2023/07/07 07:06:10;;;;;;;2.90;2.70;;;26.40;39.80;;;;;;5015618;28;20204;-78
2023/07/07 07:08:37;;;;;;;3.22;2.92;;;26.50;39.60;;;;;;5015519;28;20240;-78
2023/07/07 07:11:06;;;;;;;3.70;3.40;;;26.60;39.50;;;;;;5015919;28;20220;-78
2023/07/07 07:13:33;;;;;;;3.35;2.92;;;26.60;39.30;;;;;;5016253;28;20240;-78
2023/07/07 07:16:00;;;;;;;4.05;3.38;;;26.60;39.30;;;;;;5016197;28;20201;-78
2023/07/07 07:18:27;;;;;;;3.63;2.90;;;26.70;39.30;;;;;;5015009;28;20220;-78
2023/07/07 07:20:54;;;;;;;3.30;3.00;;;26.80;39.90;;;;;;5016315;28;20195;-78
2023/07/07 07:23:22;;;;;;;3.20;2.88;;;26.80;39.10;;;;;;5014873;28;20205;-78
2023/07/07 07:25:49;;;;;;;3.40;3.10;;;26.80;38.90;;;;;;5014804;28;20563;-78
2023/07/07 07:28:18;;;;;;;3.03;2.80;;;26.90;38.90;;;;;;5015007;28;20201;-78
2023/07/07 07:30:45;;;;;;;3.90;3.10;;;27.00;39.50;;;;;;5015323;28;20239;-78
2023/07/07 07:33:14;;;;;;;3.05;2.78;;;27.00;38.70;;;;;;5014779;28;20284;-78
2023/07/07 07:35:41;;;;;;;4.03;2.88;;;27.00;38.70;;;;;;5014751;28;20280;-78
2023/07/07 07:38:08;;;;;;;3.28;2.80;;;27.10;38.70;;;;;;5014483;28;20204;-78
2023/07/07 07:40:35;;;;;;;3.20;2.90;;;27.10;38.60;;;;;;5014606;28;20216;-78
2023/07/07 07:43:02;;;;;;;3.80;3.20;;;27.20;38.60;;;;;;5015377;28;20204;-78
2023/07/07 07:45:30;;;;;;;3.55;3.08;;;27.20;38.50;;;;;;5014448;28;20209;-78
2023/07/07 07:47:57;;;;;;;3.47;3.17;;;27.20;38.30;;;;;;5014926;28;20208;-78
2023/07/07 07:50:26;;;;;;;3.38;3.08;;;27.20;38.20;;;;;;5014358;28;20746;-78
2023/07/07 07:52:53;;;;;;;3.22;2.92;;;27.30;38.20;;;;;;5015407;28;20203;-78
2023/07/07 07:55:19;;;;;;;3.30;3.00;;;27.30;38.20;;;;;;5014891;28;20284;-78
2023/07/07 07:57:47;;;;;;;5.13;3.20;;;27.30;38.00;;;;;;5014387;28;20201;-78
2023/07/07 08:00:14;;;;;;;3.40;3.00;;;27.40;38.00;;;;;;5014857;28;20278;-78
2023/07/07 08:02:44;;;;;;;3.00;2.70;;;27.40;37.90;;;;;;5014302;28;20205;-78
2023/07/07 08:05:12;;;;;;;3.30;3.00;;;27.40;37.90;;;;;;5014197;28;20193;-78
2023/07/07 08:07:39;;;;;;;3.70;3.15;;;27.40;37.70;;;;;;4999141;28;20202;-78
2023/07/07 08:10:07;;;;;;;3.20;2.90;;;27.50;37.70;;;;;;5014234;28;20717;-78
2023/07/07 08:12:34;;;;;;;3.03;2.72;;;27.50;37.60;;;;;;5014169;28;20203;-78
2023/07/07 08:15:01;;;;;;;3.50;3.00;;;27.50;37.60;;;;;;5015201;28;20192;-78
2023/07/07 08:17:28;;;;;;;3.00;2.70;;;27.60;37.60;;;;;;5013853;28;20662;-78
2023/07/07 08:19:57;;;;;;;2.90;2.60;;;27.60;37.60;;;;;;5014351;28;20220;-78
2023/07/07 08:22:25;;;;;;;3.17;2.88;;;27.60;37.50;;;;;;5013990;28;20197;-78
2023/07/07 08:24:53;;;;;;;3.15;2.90;;;27.70;37.60;;;;;;4999239;28;20200;-78
2023/07/07 08:27:21;;;;;;;2.90;2.70;;;27.70;37.60;;;;;;5014008;28;20203;-78
2023/07/07 08:29:49;;;;;;;3.03;2.75;;;27.70;37.60;;;;;;5014182;28;20222;-78
2023/07/07 08:32:21;;;;;;;3.00;2.70;;;27.70;37.60;;;;;;5013590;28;20605;-78
2023/07/07 08:34:48;;;;;;;3.83;2.97;;;27.70;37.60;;;;;;5013742;28;20223;-78
2023/07/07 08:37:17;;;;;;;3.40;3.10;;;27.70;37.60;;;;;;5014292;28;20196;-78
2023/07/07 08:39:44;;;;;;;2.90;2.70;;;27.70;37.60;;;;;;5013419;28;20231;-78
2023/07/07 08:42:25;;;;;;;3.10;2.80;;;27.70;37.60;;;;;;5013412;28;20200;-78
2023/07/07 08:44:53;;;;;;;3.78;3.05;;;27.70;37.60;;;;;;5014022;28;20238;-78
2023/07/07 08:47:32;;;;;;;3.47;2.70;;;27.70;37.60;;;;;;5014124;28;20196;-78
2023/07/07 08:50:00;;;;;;;3.10;2.80;;;27.70;37.60;;;;;;5014754;28;20220;-78
2023/07/07 08:52:36;;;;;;;3.20;2.90;;;27.70;37.60;;;;;;5013672;28;20191;-78
2023/07/07 08:55:11;;;;;;;2.97;2.70;;;27.70;37.50;;;;;;5013455;28;20203;-78
2023/07/07 08:57:41;;;;;;;3.13;2.83;;;27.70;37.50;;;;;;5013403;28;20180;-78
2023/07/07 09:00:16;;;;;;;2.92;2.63;;;27.80;37.50;;;;;;4996735;28;20224;-78
2023/07/07 09:02:53;;;;;;;3.58;2.83;;;27.80;37.50;;;;;;4997342;28;20214;-78
2023/07/07 09:05:26;;;;;;;2.92;2.72;;;27.80;37.50;;;;;;5015096;28;20191;-78
2023/07/07 09:08:00;;;;;;;2.78;2.58;;;27.80;37.40;;;;;;5013688;28;20202;-78
2023/07/07 09:10:36;;;;;;;2.83;2.63;;;27.80;37.40;;;;;;5013763;28;20553;-78
2023/07/07 09:13:07;;;;;;;3.10;2.80;;;27.80;37.40;;;;;;4996893;28;20639;-78
2023/07/07 09:15:37;;;;;;;3.38;2.53;;;27.90;37.40;;;;;;5013576;28;20196;-78
2023/07/07 09:18:09;;;;;;;2.78;2.55;;;27.80;37.40;;;;;;5013115;28;20196;-78
2023/07/07 09:20:36;;;;;;;2.95;2.65;;;27.90;37.40;;;;;;5012936;28;20263;-78
2023/07/07 09:23:06;;;;;;;2.97;2.75;;;27.90;37.40;;;;;;5014258;28;20200;-78
2023/07/07 09:25:35;;;;;;;2.78;2.58;;;27.90;37.30;;;;;;5013353;28;20199;-78
2023/07/07 09:28:04;;;;;;;3.63;2.85;;;27.90;37.90;;;;;;5012712;28;20659;-78
2023/07/07 09:30:34;;;;;;;2.97;2.78;;;27.90;37.30;;;;;;5012972;28;20196;-78
2023/07/07 09:33:00;;;;;;;2.75;2.55;;;27.90;37.30;;;;;;5013041;28;20271;-78
2023/07/07 09:35:31;;;;;;;3.53;2.80;;;27.90;37.30;;;;;;5012842;28;20210;-78
2023/07/07 09:38:07;;;;;;;3.20;2.90;;;28.00;37.30;;;;;;4996545;28;20667;-78
2023/07/07 09:40:38;;;;;;;3.10;2.80;;;28.00;37.30;;;;;;5012727;28;20223;-78
2023/07/07 09:43:09;;;;;;;2.97;2.63;;;27.90;37.30;;;;;;5012623;28;20196;-78
2023/07/07 09:45:37;;;;;;;3.25;2.97;;;27.90;37.20;;;;;;5012793;28;20624;-77
2023/07/07 09:48:18;;;;;;;3.55;2.92;;;27.90;37.30;;;;;;5012609;28;20187;-78
2023/07/07 09:50:48;;;;;;;3.22;2.92;;;27.90;37.20;;;;;;5012568;28;20204;-77
2023/07/07 09:53:19;;;;;;;2.70;2.50;;;27.90;37.20;;;;;;5012640;28;20203;-78
2023/07/07 09:55:46;;;;;;;3.38;2.80;;;27.90;37.30;;;;;;5012772;28;20196;-78
2023/07/07 09:58:15;;;;;;;2.88;2.58;;;27.90;37.30;;;;;;5012533;28;20196;-78
2023/07/07 10:00:42;;;;;;;3.03;2.72;;;27.90;37.30;;;;;;5012481;28;20220;-78
2023/07/07 10:03:16;;;;;;;2.60;2.40;;;27.90;37.30;;;;;;5011938;28;20200;-78
2023/07/07 10:05:43;;;;;;;3.10;2.80;;;27.90;37.40;;;;;;5011571;28;20200;-78
2023/07/07 10:08:12;;;;;;;3.25;2.88;;;27.90;37.50;;;;;;5011599;28;20652;-78
2023/07/07 10:10:40;;;;;;;3.45;2.50;;;27.80;37.40;;;;;;4995327;28;20204;-78
2023/07/07 10:13:09;;;;;;;2.88;2.67;;;27.80;37.50;;;;;;5011532;28;20196;-78
2023/07/07 10:15:52;;;;;;;3.45;2.78;;;27.80;37.60;;;;;;4995591;28;20197;-78
2023/07/07 10:18:21;;;;;;;2.92;2.72;;;27.80;37.70;;;;;;5012038;28;20655;-78
2023/07/07 10:20:49;;;;;;;2.95;2.67;;;27.80;37.70;;;;;;5011770;28;20223;-78
2023/07/07 10:23:16;;;;;;;2.80;2.60;;;27.70;37.70;;;;;;5014545;28;20606;-78
2023/07/07 10:25:46;;;;;;;2.92;2.72;;;27.60;37.80;;;;;;5014849;28;20565;-78
2023/07/07 10:28:15;;;;;;;3.05;2.75;;;27.60;37.90;;;;;;5014796;28;20196;-78
2023/07/07 10:30:42;;;;;;;3.08;2.78;;;27.60;38.70;;;;;;5014795;28;20662;-78
2023/07/07 10:33:11;;;;;;;3.28;2.97;;;27.50;38.10;;;;;;5016002;28;20216;-78
2023/07/07 10:35:38;;;;;;;3.10;2.80;;;27.50;38.20;;;;;;5014694;28;20582;-78
2023/07/07 10:38:05;;;;;;;3.28;2.95;;;27.50;38.30;;;;;;5014881;28;20204;-78
2023/07/07 10:40:32;;;;;;;3.08;2.75;;;27.40;38.30;;;;;;5014713;28;20222;-78
2023/07/07 10:43:00;;;;;;;3.50;3.20;;;27.40;38.70;;;;;;5014672;28;20193;-78
2023/07/07 10:45:28;;;;;;;2.72;2.53;;;27.30;38.50;;;;;;5014686;28;20262;-78
2023/07/07 10:47:55;;;;;;;3.10;2.80;;;27.30;38.60;;;;;;5014558;28;20220;-78
2023/07/07 10:50:24;;;;;;;3.28;2.97;;;27.20;38.80;;;;;;5014366;28;20687;-78
2023/07/07 10:53:08;;;;;;;3.20;2.90;;;27.20;38.90;;;;;;5014247;28;20231;-78
2023/07/07 10:55:38;;;;;;;2.92;2.72;;;27.20;38.90;;;;;;5014245;28;20185;-78
2023/07/07 10:58:15;;;;;;;4.15;2.80;;;27.10;39.00;;;;;;5014196;28;20200;-78
2023/07/07 11:00:47;;;;;;;3.00;2.70;;;27.10;39.10;;;;;;5014134;28;20729;-78
2023/07/07 11:03:40;;;;;;;3.08;2.72;;;27.10;39.20;;;;;;4965172;28;1485009;-78
2023/07/07 11:06:13;;;;;;;3.03;2.63;;;27.00;39.30;;;;;;5017945;28;20196;-78
2023/07/07 11:08:50;;;;;;;3.17;2.90;;;27.00;39.40;;;;;;4998909;28;20232;-78
2023/07/07 11:11:22;;;;;;;2.80;2.60;;;26.90;39.50;;;;;;5015198;28;20238;-78
2023/07/07 11:14:04;;;;;;;3.30;2.92;;;26.90;39.60;;;;;;5015059;28;20204;-78
2023/07/07 11:16:36;;;;;;;3.28;2.90;;;26.80;39.70;;;;;;5016716;28;20187;-78
2023/07/07 11:19:16;;;;;;;3.10;2.90;;;26.80;39.80;;;;;;5014947;28;20311;-78
2023/07/07 11:21:46;;;;;;;3.20;2.75;;;26.70;39.80;;;;;;5014941;28;20208;-78
2023/07/07 11:24:14;;;;;;;3.20;2.97;;;26.80;40.00;;;;;;5014908;28;20201;-78
2023/07/07 11:27:09;;;;;;;2.80;2.60;;;26.80;40.00;;;;;;5015124;28;20196;-77
2023/07/07 11:29:41;;;;;;;3.40;3.10;;;26.70;40.10;;;;;;5014810;28;20711;-77
2023/07/07 11:32:16;;;;;;;2.95;2.70;;;26.70;40.10;;;;;;5016571;28;20176;-77
2023/07/07 11:35:17;;;;;;;3.13;2.83;;;26.70;40.20;;;;;;5015064;28;20292;-77
2023/07/07 11:38:11;;;;;;;3.28;2.97;;;26.70;40.20;;;;;;5007575;28;20203;-77
2023/07/07 11:40:55;;;;;;;3.15;2.85;;;26.70;40.20;;;;;;5014599;28;20401;-77
2023/07/07 11:43:36;;;;;;;3.28;2.97;;;26.70;40.20;;;;;;5014577;28;20275;-77
2023/07/07 11:46:25;;;;;;;3.40;3.10;;;26.70;40.20;;;;;;4998430;28;20192;-77
2023/07/07 11:48:56;;;;;;;3.17;2.88;;;26.70;40.30;;;;;;5001756;28;20557;-77
2023/07/07 11:51:29;;;;;;;3.40;3.00;;;26.70;40.20;;;;;;5014299;28;20199;-77
2023/07/07 11:54:07;;;;;;;3.30;3.00;;;26.70;40.30;;;;;;5014839;28;20208;-77
2023/07/07 11:56:49;;;;;;;3.30;3.00;;;26.70;40.30;;;;;;5015587;28;20204;-77
2023/07/07 11:59:27;;;;;;;3.58;3.25;;;26.70;40.30;;;;;;5014356;28;20224;-77
2023/07/07 12:01:56;;;;;;;3.30;3.00;;;26.70;40.30;;;;;;5015267;28;20191;-77
2023/07/07 12:04:25;;;;;;;3.40;3.10;;;26.70;40.30;;;;;;5014599;28;20200;-77
2023/07/07 12:06:53;;;;;;;3.45;3.15;;;26.70;40.30;;;;;;4998036;28;20613;-77
2023/07/07 12:09:23;;;;;;;3.40;3.08;;;26.70;40.30;;;;;;5014346;28;20322;-77
2023/07/07 12:11:52;;;;;;;3.30;3.00;;;26.70;40.40;;;;;;5014463;28;20200;-77
2023/07/07 12:14:29;;;;;;;3.78;3.30;;;26.60;40.50;;;;;;5014154;28;20200;-77
2023/07/07 12:16:58;;;;;;;3.58;3.28;;;26.70;40.50;;;;;;5013939;28;20560;-77
2023/07/07 12:19:30;;;;;;;3.70;3.33;;;26.60;40.40;;;;;;5013695;28;20227;-77
2023/07/07 12:21:58;;;;;;;3.55;3.20;;;26.70;40.50;;;;;;5014996;28;20196;-77
2023/07/07 12:24:28;;;;;;;3.60;3.13;;;26.70;40.50;;;;;;5013764;28;20211;-77
2023/07/07 12:27:04;;;;;;;3.50;3.20;;;26.60;40.50;;;;;;4998519;28;20198;-77
2023/07/07 12:29:31;;;;;;;3.40;3.10;;;26.60;40.60;;;;;;5013530;28;20310;-77
2023/07/07 12:32:00;;;;;;;3.38;3.08;;;26.60;40.60;;;;;;5013493;28;20196;-77
2023/07/07 12:34:39;;;;;;;3.50;3.20;;;26.60;40.70;;;;;;5013670;28;20215;-77
2023/07/07 12:37:09;;;;;;;3.80;3.40;;;26.60;40.70;;;;;;5013429;28;20255;-77
2023/07/07 12:39:36;;;;;;;3.67;3.38;;;26.60;40.80;;;;;;5013485;28;20220;-77
2023/07/07 12:42:04;;;;;;;3.90;3.50;;;26.60;40.80;;;;;;5013265;28;20270;-77
2023/07/07 12:44:32;;;;;;;3.40;3.10;;;26.60;40.80;;;;;;5013092;28;20659;-77
2023/07/07 12:47:03;;;;;;;3.53;3.22;;;26.60;40.80;;;;;;5013305;28;20207;-77
2023/07/07 12:49:36;;;;;;;4.38;3.60;;;26.60;40.90;;;;;;5013329;28;20629;-77
2023/07/07 12:52:04;;;;;;;3.95;3.47;;;26.50;40.80;;;;;;5013245;28;20279;-77
2023/07/07 12:54:32;;;;;;;3.90;3.30;;;26.60;40.90;;;;;;5012939;28;20220;-77
2023/07/07 12:57:01;;;;;;;3.60;3.30;;;26.50;40.90;;;;;;5013768;28;20243;-77
2023/07/07 12:59:35;;;;;;;3.63;3.33;;;26.50;41.50;;;;;;5013463;28;20584;-77
2023/07/07 13:02:12;;;;;;;3.80;3.42;;;26.60;41.00;;;;;;5012817;28;20319;-77